createdAt,value
2018-03-07T00:00:24.632Z,0.00
2018-03-07T00:01:24.711Z,0.00
2018-03-07T00:02:24.590Z,0.00
2018-03-07T00:03:24.676Z,0.00
2018-03-07T00:04:24.550Z,0.00
2018-03-07T00:05:24.527Z,0.00
2018-03-07T00:06:24.504Z,0.00
2018-03-07T00:07:24.605Z,0.00
2018-03-07T00:08:24.465Z,0.00
2018-03-07T00:09:24.444Z,0.00
2018-03-07T00:10:24.424Z,0.00
2018-03-07T00:11:24.398Z,0.00
2018-03-07T00:12:24.377Z,0.00
2018-03-07T00:13:24.366Z,0.00
2018-03-07T00:14:24.333Z,0.00
2018-03-07T00:15:24.314Z,0.00
2018-03-07T00:16:24.291Z,0.00
2018-03-07T00:17:24.274Z,0.00
2018-03-07T00:18:24.249Z,0.00
2018-03-07T00:19:24.225Z,0.00
2018-03-07T00:20:24.207Z,0.00
2018-03-07T00:21:24.187Z,0.00
2018-03-07T00:22:24.171Z,0.00
2018-03-07T00:23:24.146Z,0.00
2018-03-07T00:24:24.123Z,0.00
2018-03-07T00:25:24.101Z,0.00
2018-03-07T00:26:24.085Z,0.00
2018-03-07T00:27:24.059Z,0.00
2018-03-07T00:28:24.073Z,0.00
2018-03-07T00:29:24.018Z,0.00
2018-03-07T00:30:23.996Z,0.00
2018-03-07T00:31:23.972Z,0.00
2018-03-07T00:32:23.955Z,0.00
2018-03-07T00:33:23.934Z,0.00
2018-03-07T00:34:23.909Z,0.00
2018-03-07T00:35:23.895Z,0.00
2018-03-07T00:36:23.870Z,0.00
2018-03-07T00:37:23.846Z,0.00
2018-03-07T00:38:23.826Z,0.00
2018-03-07T00:39:23.807Z,0.00
2018-03-07T00:40:23.782Z,0.00
2018-03-07T00:41:23.761Z,0.00
2018-03-07T00:42:23.738Z,0.00
2018-03-07T00:43:23.719Z,0.00
2018-03-07T00:44:23.696Z,0.00
2018-03-07T00:45:23.680Z,0.00
2018-03-07T00:46:23.653Z,0.00
2018-03-07T00:47:23.632Z,0.00
2018-03-07T00:48:23.613Z,0.00
2018-03-07T00:49:23.590Z,0.00
2018-03-07T00:50:23.568Z,0.00
2018-03-07T00:51:23.546Z,0.00
2018-03-07T00:52:23.526Z,0.00
2018-03-07T00:53:23.505Z,0.00
2018-03-07T00:54:23.483Z,0.00
2018-03-07T00:55:23.465Z,0.00
2018-03-07T00:56:23.443Z,0.00
2018-03-07T00:57:23.423Z,0.00
2018-03-07T00:58:23.400Z,0.00
2018-03-07T00:59:23.379Z,0.00
2018-03-07T01:00:23.364Z,0.00
2018-03-07T01:01:23.436Z,0.00
2018-03-07T01:02:23.313Z,0.00
2018-03-07T01:03:23.295Z,0.00
2018-03-07T01:04:23.272Z,0.00
2018-03-07T01:05:23.251Z,0.00
2018-03-07T01:06:23.228Z,0.00
2018-03-07T01:07:23.215Z,0.00
2018-03-07T01:08:23.187Z,0.00
2018-03-07T01:09:23.164Z,0.00
2018-03-07T01:10:23.150Z,0.00
2018-03-07T01:11:23.123Z,0.00
2018-03-07T01:12:23.106Z,0.00
2018-03-07T01:13:23.083Z,0.00
2018-03-07T01:14:23.062Z,0.00
2018-03-07T01:15:23.037Z,0.00
2018-03-07T01:16:23.022Z,0.00
2018-03-07T01:17:23.002Z,0.00
2018-03-07T01:18:22.974Z,0.00
2018-03-07T01:19:22.954Z,0.00
2018-03-07T01:20:22.935Z,0.00
2018-03-07T01:21:22.912Z,0.00
2018-03-07T01:22:22.888Z,0.00
2018-03-07T01:23:22.873Z,0.00
2018-03-07T01:24:22.850Z,0.00
2018-03-07T01:25:22.828Z,0.00
2018-03-07T01:26:22.806Z,0.00
2018-03-07T01:27:22.790Z,0.00
2018-03-07T01:28:22.763Z,0.00
2018-03-07T01:29:22.744Z,0.00
2018-03-07T01:30:22.720Z,0.00
2018-03-07T01:31:22.702Z,0.00
2018-03-07T01:32:22.680Z,0.00
2018-03-07T01:33:22.658Z,0.00
2018-03-07T01:34:22.640Z,0.00
2018-03-07T01:35:22.616Z,0.00
2018-03-07T01:36:22.594Z,0.00
2018-03-07T01:37:22.574Z,0.00
2018-03-07T01:38:22.549Z,0.00
2018-03-07T01:39:22.529Z,0.00
2018-03-07T01:40:22.508Z,0.00
2018-03-07T01:41:22.489Z,0.00
2018-03-07T01:42:22.465Z,0.00
2018-03-07T01:43:22.444Z,0.00
2018-03-07T01:44:22.427Z,0.00
2018-03-07T01:45:22.406Z,0.00
2018-03-07T01:46:22.380Z,0.00
2018-03-07T01:47:22.361Z,0.00
2018-03-07T01:48:22.344Z,0.00
2018-03-07T01:49:22.318Z,0.00
2018-03-07T01:50:22.295Z,0.00
2018-03-07T01:51:22.278Z,0.00
2018-03-07T01:52:22.253Z,0.00
2018-03-07T01:53:22.234Z,0.00
2018-03-07T01:54:22.213Z,0.00
2018-03-07T01:55:22.194Z,0.00
2018-03-07T01:56:22.175Z,0.00
2018-03-07T01:57:22.151Z,0.00
2018-03-07T01:58:22.126Z,0.00
2018-03-07T01:59:22.106Z,0.00
2018-03-07T02:00:22.087Z,0.00
2018-03-07T02:01:22.062Z,0.00
2018-03-07T02:02:22.046Z,0.00
2018-03-07T02:03:22.025Z,0.00
2018-03-07T02:04:22.000Z,0.00
2018-03-07T02:05:21.987Z,0.00
2018-03-07T02:06:21.959Z,0.00
2018-03-07T02:07:21.936Z,0.00
2018-03-07T02:08:21.914Z,0.00
2018-03-07T02:09:21.895Z,0.00
2018-03-07T02:10:21.873Z,0.00
2018-03-07T02:11:21.854Z,0.00
2018-03-07T02:12:21.838Z,0.00
2018-03-07T02:13:21.809Z,0.00
2018-03-07T02:14:21.795Z,0.00
2018-03-07T02:15:21.773Z,0.00
2018-03-07T02:16:21.747Z,0.00
2018-03-07T02:17:21.727Z,0.00
2018-03-07T02:18:21.704Z,0.00
2018-03-07T02:19:21.683Z,0.00
2018-03-07T02:20:21.660Z,0.00
2018-03-07T02:21:21.642Z,0.00
2018-03-07T02:22:21.620Z,0.00
2018-03-07T02:23:21.593Z,0.00
2018-03-07T02:24:21.577Z,0.00
2018-03-07T02:25:21.555Z,0.00
2018-03-07T02:26:21.533Z,0.00
2018-03-07T02:27:21.511Z,0.00
2018-03-07T02:28:21.493Z,0.00
2018-03-07T02:29:21.469Z,0.00
2018-03-07T02:30:21.450Z,0.00
2018-03-07T02:31:21.432Z,0.00
2018-03-07T02:32:21.405Z,0.00
2018-03-07T02:33:21.392Z,0.00
2018-03-07T02:34:21.364Z,0.00
2018-03-07T02:35:21.343Z,0.00
2018-03-07T02:36:21.322Z,0.00
2018-03-07T02:37:21.304Z,0.00
2018-03-07T02:38:21.279Z,0.00
2018-03-07T02:39:21.257Z,0.00
2018-03-07T02:40:21.300Z,0.00
2018-03-07T02:41:21.215Z,0.00
2018-03-07T02:42:21.293Z,0.00
2018-03-07T02:43:21.177Z,0.00
2018-03-07T02:44:21.253Z,0.00
2018-03-07T02:45:21.176Z,0.00
2018-03-07T02:46:21.109Z,0.00
2018-03-07T02:47:21.089Z,0.00
2018-03-07T02:48:21.169Z,0.00
2018-03-07T02:49:21.044Z,0.00
2018-03-07T02:50:21.026Z,0.00
2018-03-07T02:51:21.013Z,0.00
2018-03-07T02:52:21.108Z,0.00
2018-03-07T02:53:20.964Z,0.00
2018-03-07T02:54:21.091Z,0.00
2018-03-07T02:55:20.919Z,0.00
2018-03-07T02:56:20.914Z,0.00
2018-03-07T02:57:20.874Z,0.00
2018-03-07T02:58:20.858Z,0.00
2018-03-07T02:59:20.834Z,0.00
2018-03-07T03:00:20.823Z,0.00
2018-03-07T03:01:20.789Z,0.00
2018-03-07T03:02:20.773Z,0.00
2018-03-07T03:03:20.748Z,0.00
2018-03-07T03:04:20.835Z,0.00
2018-03-07T03:05:20.709Z,0.00
2018-03-07T03:06:20.786Z,0.00
2018-03-07T03:07:20.668Z,0.00
2018-03-07T03:08:20.645Z,0.00
2018-03-07T03:09:20.620Z,0.00
2018-03-07T03:10:20.597Z,0.00
2018-03-07T03:11:20.574Z,0.00
2018-03-07T03:12:20.556Z,0.00
2018-03-07T03:13:20.543Z,0.00
2018-03-07T03:14:20.515Z,0.00
2018-03-07T03:15:20.494Z,0.00
2018-03-07T03:16:20.472Z,0.00
2018-03-07T03:17:20.451Z,0.00
2018-03-07T03:18:20.555Z,0.00
2018-03-07T03:19:20.410Z,0.00
2018-03-07T03:20:20.391Z,0.00
2018-03-07T03:21:20.364Z,0.00
2018-03-07T03:22:20.345Z,0.00
2018-03-07T03:23:20.326Z,0.00
2018-03-07T03:24:20.307Z,0.00
2018-03-07T03:25:20.278Z,0.00
2018-03-07T03:26:20.255Z,0.00
2018-03-07T03:27:20.240Z,0.00
2018-03-07T03:28:20.218Z,0.00
2018-03-07T03:29:20.197Z,0.00
2018-03-07T03:30:20.175Z,0.00
2018-03-07T03:31:20.157Z,0.00
2018-03-07T03:32:20.131Z,0.00
2018-03-07T03:33:20.107Z,0.00
2018-03-07T03:34:20.085Z,0.00
2018-03-07T03:35:20.063Z,0.00
2018-03-07T03:36:20.044Z,0.00
2018-03-07T03:37:20.024Z,0.00
2018-03-07T03:38:20.004Z,0.00
2018-03-07T03:39:19.979Z,0.00
2018-03-07T03:40:19.961Z,0.00
2018-03-07T03:41:19.947Z,0.00
2018-03-07T03:42:19.915Z,0.00
2018-03-07T03:43:19.892Z,0.00
2018-03-07T03:44:19.873Z,0.00
2018-03-07T03:45:19.852Z,0.00
2018-03-07T03:46:19.828Z,0.00
2018-03-07T03:47:19.810Z,0.00
2018-03-07T03:48:19.787Z,0.00
2018-03-07T03:49:19.770Z,0.00
2018-03-07T03:50:19.744Z,0.00
2018-03-07T03:51:19.724Z,0.00
2018-03-07T03:52:19.703Z,0.00
2018-03-07T03:53:19.685Z,0.00
2018-03-07T03:54:19.659Z,0.00
2018-03-07T03:55:19.639Z,0.00
2018-03-07T03:56:19.626Z,0.00
2018-03-07T03:57:19.598Z,0.00
2018-03-07T03:58:19.574Z,0.00
2018-03-07T03:59:19.555Z,0.00
2018-03-07T04:00:19.530Z,0.00
2018-03-07T04:01:19.513Z,0.00
2018-03-07T04:02:19.487Z,0.00
2018-03-07T04:03:19.472Z,0.00
2018-03-07T04:04:19.448Z,0.00
2018-03-07T04:05:19.428Z,0.00
2018-03-07T04:06:19.404Z,0.00
2018-03-07T04:07:19.385Z,0.00
2018-03-07T04:08:19.362Z,0.00
2018-03-07T04:09:19.344Z,0.00
2018-03-07T04:10:19.323Z,0.00
2018-03-07T04:11:19.300Z,0.00
2018-03-07T04:12:19.284Z,0.00
2018-03-07T04:13:19.256Z,0.00
2018-03-07T04:14:19.235Z,0.00
2018-03-07T04:15:19.213Z,0.00
2018-03-07T04:16:19.193Z,0.00
2018-03-07T04:17:19.173Z,0.00
2018-03-07T04:18:19.148Z,0.00
2018-03-07T04:19:19.130Z,0.00
2018-03-07T04:20:19.109Z,0.00
2018-03-07T04:21:19.085Z,0.00
2018-03-07T04:22:19.064Z,0.00
2018-03-07T04:23:19.045Z,0.00
2018-03-07T04:24:19.031Z,0.00
2018-03-07T04:25:19.005Z,0.00
2018-03-07T04:26:18.982Z,0.00
2018-03-07T04:27:18.958Z,0.00
2018-03-07T04:28:18.943Z,0.00
2018-03-07T04:29:18.913Z,0.00
2018-03-07T04:30:18.896Z,0.00
2018-03-07T04:31:18.869Z,0.00
2018-03-07T04:32:18.853Z,0.00
2018-03-07T04:33:18.831Z,0.00
2018-03-07T04:34:18.808Z,0.00
2018-03-07T04:35:18.812Z,0.00
2018-03-07T04:36:18.766Z,0.00
2018-03-07T04:37:18.743Z,0.00
2018-03-07T04:38:18.719Z,0.00
2018-03-07T04:39:18.703Z,0.00
2018-03-07T04:40:18.679Z,0.00
2018-03-07T04:41:18.659Z,0.00
2018-03-07T04:42:18.638Z,0.00
2018-03-07T04:43:18.619Z,0.00
2018-03-07T04:44:18.594Z,0.00
2018-03-07T04:45:18.588Z,0.00
2018-03-07T04:46:18.550Z,0.00
2018-03-07T04:47:18.528Z,0.00
2018-03-07T04:48:18.509Z,0.00
2018-03-07T04:49:18.487Z,0.00
2018-03-07T04:50:18.464Z,0.00
2018-03-07T04:51:18.446Z,0.00
2018-03-07T04:52:18.423Z,0.00
2018-03-07T04:53:18.403Z,0.00
2018-03-07T04:54:18.380Z,0.00
2018-03-07T04:55:18.365Z,0.00
2018-03-07T04:56:18.340Z,0.00
2018-03-07T04:57:18.316Z,0.00
2018-03-07T04:58:18.294Z,0.00
2018-03-07T04:59:18.272Z,0.00
2018-03-07T05:00:18.253Z,0.00
2018-03-07T05:01:18.232Z,0.00
2018-03-07T05:02:18.213Z,0.00
2018-03-07T05:03:18.190Z,0.00
2018-03-07T05:04:18.165Z,0.00
2018-03-07T05:05:18.149Z,0.00
2018-03-07T05:06:18.127Z,0.00
2018-03-07T05:07:18.104Z,0.00
2018-03-07T05:08:18.084Z,0.00
2018-03-07T05:09:18.062Z,0.00
2018-03-07T05:10:18.039Z,0.00
2018-03-07T05:11:18.024Z,0.00
2018-03-07T05:12:17.999Z,0.00
2018-03-07T05:13:17.976Z,0.00
2018-03-07T05:14:17.954Z,0.00
2018-03-07T05:15:17.935Z,4.00
2018-03-07T05:16:17.913Z,4.00
2018-03-07T05:17:17.892Z,0.00
2018-03-07T05:18:17.868Z,4.00
2018-03-07T05:19:17.848Z,4.00
2018-03-07T05:20:17.833Z,4.00
2018-03-07T05:21:17.808Z,8.00
2018-03-07T05:22:17.785Z,8.00
2018-03-07T05:23:17.762Z,8.00
2018-03-07T05:24:17.740Z,8.00
2018-03-07T05:25:17.723Z,12.00
2018-03-07T05:26:17.697Z,12.00
2018-03-07T05:27:17.703Z,16.00
2018-03-07T05:28:17.659Z,20.00
2018-03-07T05:29:17.635Z,24.00
2018-03-07T05:30:17.614Z,32.00
2018-03-07T05:31:17.595Z,36.00
2018-03-07T05:32:17.571Z,36.00
2018-03-07T05:33:17.547Z,44.00
2018-03-07T05:34:17.532Z,44.00
2018-03-07T05:35:17.520Z,48.00
2018-03-07T05:36:17.484Z,48.00
2018-03-07T05:37:17.463Z,56.00
2018-03-07T05:38:17.447Z,60.00
2018-03-07T05:39:17.419Z,68.00
2018-03-07T05:40:17.404Z,76.00
2018-03-07T05:41:17.384Z,80.00
2018-03-07T05:42:17.359Z,88.00
2018-03-07T05:43:17.342Z,92.00
2018-03-07T05:44:17.315Z,100.00
2018-03-07T05:45:17.294Z,108.00
2018-03-07T05:46:17.274Z,112.00
2018-03-07T05:47:17.256Z,116.00
2018-03-07T05:48:17.230Z,120.00
2018-03-07T05:49:17.233Z,124.00
2018-03-07T05:50:17.191Z,128.00
2018-03-07T05:51:17.179Z,132.00
2018-03-07T05:52:17.144Z,140.00
2018-03-07T05:53:17.122Z,148.00
2018-03-07T05:54:17.105Z,160.00
2018-03-07T05:55:17.079Z,176.00
2018-03-07T05:56:17.058Z,192.00
2018-03-07T05:57:17.037Z,204.00
2018-03-07T05:58:17.018Z,220.00
2018-03-07T05:59:16.992Z,232.00
2018-03-07T06:00:16.973Z,252.00
2018-03-07T06:01:16.954Z,272.00
2018-03-07T06:02:16.933Z,284.00
2018-03-07T06:03:16.911Z,296.00
2018-03-07T06:04:16.900Z,304.00
2018-03-07T06:05:16.870Z,320.00
2018-03-07T06:06:16.848Z,348.00
2018-03-07T06:07:16.825Z,368.00
2018-03-07T06:08:16.803Z,404.00
2018-03-07T06:09:16.782Z,440.00
2018-03-07T06:10:16.765Z,488.00
2018-03-07T06:11:16.741Z,528.00
2018-03-07T06:12:16.722Z,560.00
2018-03-07T06:13:16.702Z,596.00
2018-03-07T06:14:16.676Z,632.00
2018-03-07T06:15:16.661Z,676.00
2018-03-07T06:16:16.632Z,736.00
2018-03-07T06:17:16.613Z,784.00
2018-03-07T06:18:16.589Z,832.00
2018-03-07T06:19:16.574Z,876.00
2018-03-07T06:20:16.552Z,940.00
2018-03-07T06:21:16.528Z,968.00
2018-03-07T06:22:16.516Z,1012.00
2018-03-07T06:23:16.484Z,1072.00
2018-03-07T06:24:16.460Z,1112.00
2018-03-07T06:25:16.444Z,1116.00
2018-03-07T06:26:16.422Z,1116.00
2018-03-07T06:27:16.399Z,1132.00
2018-03-07T06:28:16.385Z,1160.00
2018-03-07T06:29:16.357Z,1184.00
2018-03-07T06:30:16.334Z,1216.00
2018-03-07T06:31:16.318Z,1272.00
2018-03-07T06:32:16.292Z,1320.00
2018-03-07T06:33:16.272Z,1368.00
2018-03-07T06:34:16.254Z,1408.00
2018-03-07T06:35:16.233Z,1428.00
2018-03-07T06:36:16.222Z,1456.00
2018-03-07T06:37:16.188Z,1464.00
2018-03-07T06:38:16.166Z,1464.00
2018-03-07T06:39:16.146Z,1488.00
2018-03-07T06:40:16.126Z,1516.00
2018-03-07T06:41:16.102Z,1544.00
2018-03-07T06:42:16.081Z,1564.00
2018-03-07T06:43:16.058Z,1564.00
2018-03-07T06:44:16.043Z,1592.00
2018-03-07T06:45:16.019Z,1636.00
2018-03-07T06:46:16.004Z,1664.00
2018-03-07T06:47:15.975Z,1696.00
2018-03-07T06:48:15.957Z,1756.00
2018-03-07T06:49:15.931Z,1820.00
2018-03-07T06:50:15.956Z,1844.00
2018-03-07T06:51:15.892Z,1860.00
2018-03-07T06:52:15.869Z,1864.00
2018-03-07T06:53:15.855Z,1820.00
2018-03-07T06:54:15.827Z,1740.00
2018-03-07T06:55:15.806Z,1652.00
2018-03-07T06:56:15.784Z,1600.00
2018-03-07T06:57:15.764Z,1592.00
2018-03-07T06:58:15.739Z,1604.00
2018-03-07T06:59:15.720Z,1620.00
2018-03-07T07:00:15.702Z,1668.00
2018-03-07T07:01:15.677Z,1708.00
2018-03-07T07:02:15.657Z,1772.00
2018-03-07T07:03:15.639Z,1860.00
2018-03-07T07:04:15.615Z,1928.00
2018-03-07T07:05:15.595Z,1940.00
2018-03-07T07:06:15.610Z,1944.00
2018-03-07T07:07:15.550Z,1940.00
2018-03-07T07:08:15.538Z,1940.00
2018-03-07T07:09:15.511Z,1928.00
2018-03-07T07:10:15.490Z,1944.00
2018-03-07T07:11:15.467Z,1992.00
2018-03-07T07:12:15.467Z,2012.00
2018-03-07T07:13:15.425Z,1988.00
2018-03-07T07:14:15.405Z,1968.00
2018-03-07T07:15:15.385Z,1956.00
2018-03-07T07:16:15.362Z,1936.00
2018-03-07T07:17:15.343Z,1904.00
2018-03-07T07:18:15.322Z,1872.00
2018-03-07T07:19:15.300Z,1848.00
2018-03-07T07:20:15.281Z,1880.00
2018-03-07T07:21:15.258Z,1968.00
2018-03-07T07:22:15.238Z,2120.00
2018-03-07T07:23:15.213Z,2268.00
2018-03-07T07:24:15.196Z,2368.00
2018-03-07T07:25:15.178Z,2444.00
2018-03-07T07:26:15.154Z,2460.00
2018-03-07T07:27:15.139Z,2384.00
2018-03-07T07:28:15.112Z,2252.00
2018-03-07T07:29:15.083Z,2156.00
2018-03-07T07:30:15.067Z,2080.00
2018-03-07T07:31:15.049Z,2084.00
2018-03-07T07:32:15.077Z,2176.00
2018-03-07T07:33:15.007Z,2264.00
2018-03-07T07:34:14.984Z,2372.00
2018-03-07T07:35:14.965Z,2480.00
2018-03-07T07:36:14.948Z,2612.00
2018-03-07T07:37:14.925Z,2752.00
2018-03-07T07:38:14.906Z,2864.00
2018-03-07T07:39:14.879Z,2880.00
2018-03-07T07:40:14.863Z,2760.00
2018-03-07T07:41:14.839Z,2612.00
2018-03-07T07:42:14.816Z,2484.00
2018-03-07T07:43:14.804Z,2376.00
2018-03-07T07:44:14.833Z,2308.00
2018-03-07T07:45:14.757Z,2316.00
2018-03-07T07:46:14.777Z,2384.00
2018-03-07T07:47:14.735Z,2488.00
2018-03-07T07:48:14.695Z,2608.00
2018-03-07T07:49:14.673Z,2740.00
2018-03-07T07:50:14.703Z,2872.00
2018-03-07T07:51:14.628Z,2988.00
2018-03-07T07:52:14.760Z,3088.00
2018-03-07T07:53:14.595Z,3188.00
2018-03-07T07:54:14.746Z,3312.00
2018-03-07T07:55:14.544Z,3400.00
2018-03-07T07:56:14.578Z,3428.00
2018-03-07T07:57:14.509Z,3472.00
2018-03-07T07:58:14.489Z,3516.00
2018-03-07T07:59:14.462Z,3508.00
2018-03-07T08:00:14.540Z,3436.00
2018-03-07T08:01:14.421Z,3360.00
2018-03-07T08:02:14.399Z,3284.00
2018-03-07T08:03:14.379Z,3204.00
2018-03-07T08:04:14.364Z,3156.00
2018-03-07T08:05:14.339Z,3144.00
2018-03-07T08:06:14.316Z,3172.00
2018-03-07T08:07:14.296Z,3216.00
2018-03-07T08:08:14.342Z,3188.00
2018-03-07T08:09:14.255Z,3296.00
2018-03-07T08:10:14.236Z,3460.00
2018-03-07T08:11:14.213Z,3608.00
2018-03-07T08:12:14.190Z,3784.00
2018-03-07T08:13:14.172Z,3964.00
2018-03-07T08:14:14.158Z,4048.00
2018-03-07T08:15:14.140Z,4064.00
2018-03-07T08:16:14.108Z,3996.00
2018-03-07T08:17:14.087Z,3988.00
2018-03-07T08:18:14.138Z,3980.00
2018-03-07T08:19:14.045Z,4068.00
2018-03-07T08:20:14.026Z,4104.00
2018-03-07T08:21:14.005Z,4116.00
2018-03-07T08:22:13.986Z,4152.00
2018-03-07T08:23:13.960Z,4232.00
2018-03-07T08:24:13.944Z,4232.00
2018-03-07T08:25:13.919Z,4260.00
2018-03-07T08:26:13.904Z,4352.00
2018-03-07T08:27:13.881Z,4428.00
2018-03-07T08:28:13.857Z,4348.00
2018-03-07T08:29:13.838Z,4340.00
2018-03-07T08:30:13.815Z,4528.00
2018-03-07T08:31:13.794Z,4552.00
2018-03-07T08:32:13.776Z,4636.00
2018-03-07T08:33:13.757Z,4788.00
2018-03-07T08:34:13.736Z,5052.00
2018-03-07T08:35:13.712Z,5512.00
2018-03-07T08:36:13.696Z,5672.00
2018-03-07T08:37:13.676Z,5720.00
2018-03-07T08:38:13.650Z,5688.00
2018-03-07T08:39:13.633Z,5716.00
2018-03-07T08:40:13.610Z,5700.00
2018-03-07T08:41:13.595Z,5848.00
2018-03-07T08:42:13.571Z,5396.00
2018-03-07T08:43:13.548Z,4844.00
2018-03-07T08:44:13.530Z,4692.00
2018-03-07T08:45:13.512Z,5020.00
2018-03-07T08:46:13.485Z,4892.00
2018-03-07T08:47:13.466Z,4900.00
2018-03-07T08:48:13.446Z,4508.00
2018-03-07T08:49:13.423Z,4800.00
2018-03-07T08:50:13.411Z,5396.00
2018-03-07T08:51:13.386Z,5948.00
2018-03-07T08:52:13.414Z,6388.00
2018-03-07T08:53:13.341Z,6460.00
2018-03-07T08:54:13.325Z,6580.00
2018-03-07T08:55:13.301Z,6576.00
2018-03-07T08:56:13.279Z,6576.00
2018-03-07T08:57:13.259Z,6232.00
2018-03-07T08:58:13.243Z,6208.00
2018-03-07T08:59:13.224Z,5948.00
2018-03-07T09:00:13.200Z,6004.00
2018-03-07T09:01:13.185Z,5392.00
2018-03-07T09:02:13.155Z,5140.00
2018-03-07T09:03:13.140Z,5156.00
2018-03-07T09:04:13.116Z,4788.00
2018-03-07T09:05:13.096Z,5144.00
2018-03-07T09:06:13.074Z,4992.00
2018-03-07T09:07:13.055Z,5388.00
2018-03-07T09:08:13.037Z,5740.00
2018-03-07T09:09:13.017Z,5604.00
2018-03-07T09:10:13.022Z,5768.00
2018-03-07T09:11:12.973Z,6104.00
2018-03-07T09:12:12.955Z,6068.00
2018-03-07T09:13:12.929Z,5768.00
2018-03-07T09:14:12.907Z,6016.00
2018-03-07T09:15:12.890Z,6568.00
2018-03-07T09:16:12.867Z,6616.00
2018-03-07T09:17:12.854Z,6220.00
2018-03-07T09:18:12.826Z,5716.00
2018-03-07T09:19:12.803Z,5592.00
2018-03-07T09:20:12.785Z,5492.00
2018-03-07T09:21:12.764Z,5484.00
2018-03-07T09:22:12.743Z,5196.00
2018-03-07T09:23:12.724Z,5180.00
2018-03-07T09:24:12.703Z,5104.00
2018-03-07T09:25:12.686Z,5144.00
2018-03-07T09:26:12.669Z,4508.00
2018-03-07T09:27:12.646Z,4680.00
2018-03-07T09:28:12.622Z,5212.00
2018-03-07T09:29:12.601Z,4564.00
2018-03-07T09:30:12.581Z,4092.00
2018-03-07T09:31:12.567Z,4156.00
2018-03-07T09:32:12.536Z,4068.00
2018-03-07T09:33:12.519Z,3912.00
2018-03-07T09:34:12.494Z,3964.00
2018-03-07T09:35:12.478Z,3684.00
2018-03-07T09:36:12.455Z,3540.00
2018-03-07T09:37:12.435Z,3948.00
2018-03-07T09:38:12.420Z,3964.00
2018-03-07T09:39:12.393Z,3996.00
2018-03-07T09:40:12.373Z,3780.00
2018-03-07T09:41:12.354Z,4032.00
2018-03-07T09:42:12.331Z,4248.00
2018-03-07T09:43:12.312Z,4608.00
2018-03-07T09:44:12.288Z,4048.00
2018-03-07T09:45:12.328Z,4264.00
2018-03-07T09:46:12.251Z,4588.00
2018-03-07T09:47:12.233Z,4632.00
2018-03-07T09:48:12.209Z,4776.00
2018-03-07T09:49:12.185Z,5100.00
2018-03-07T09:50:12.165Z,5840.00
2018-03-07T09:51:12.147Z,5628.00
2018-03-07T09:52:12.125Z,5828.00
2018-03-07T09:53:12.105Z,5704.00
2018-03-07T09:54:12.084Z,5336.00
2018-03-07T09:55:12.072Z,5560.00
2018-03-07T09:56:12.122Z,5680.00
2018-03-07T09:57:12.026Z,5444.00
2018-03-07T09:58:12.004Z,5460.00
2018-03-07T09:59:11.988Z,5020.00
2018-03-07T10:00:11.975Z,5048.00
2018-03-07T10:01:11.941Z,5052.00
2018-03-07T10:02:11.925Z,4740.00
2018-03-07T10:03:11.898Z,4828.00
2018-03-07T10:04:11.876Z,4928.00
2018-03-07T10:05:11.854Z,5220.00
2018-03-07T10:06:11.836Z,5012.00
2018-03-07T10:07:11.814Z,4916.00
2018-03-07T10:08:11.794Z,4944.00
2018-03-07T10:09:11.775Z,4820.00
2018-03-07T10:10:11.748Z,5632.00
2018-03-07T10:11:11.733Z,5344.00
2018-03-07T10:12:11.715Z,5424.00
2018-03-07T10:13:11.694Z,4936.00
2018-03-07T10:14:11.665Z,4944.00
2018-03-07T10:15:11.657Z,4564.00
2018-03-07T10:16:11.634Z,4852.00
2018-03-07T10:17:11.605Z,4976.00
2018-03-07T10:18:11.587Z,4784.00
2018-03-07T10:19:11.569Z,4760.00
2018-03-07T10:20:11.543Z,4664.00
2018-03-07T10:21:11.525Z,4888.00
2018-03-07T10:22:11.503Z,4616.00
2018-03-07T10:23:11.481Z,4940.00
2018-03-07T10:24:11.460Z,5132.00
2018-03-07T10:25:11.440Z,5048.00
2018-03-07T10:26:11.417Z,6092.00
2018-03-07T10:27:11.406Z,5732.00
2018-03-07T10:28:11.374Z,5564.00
2018-03-07T10:29:11.355Z,5988.00
2018-03-07T10:30:11.335Z,5528.00
2018-03-07T10:31:11.314Z,6188.00
2018-03-07T10:32:11.290Z,6080.00
2018-03-07T10:33:11.273Z,5920.00
2018-03-07T10:34:11.253Z,6788.00
2018-03-07T10:35:11.330Z,7040.00
2018-03-07T10:36:11.208Z,7144.00
2018-03-07T10:37:11.195Z,7584.00
2018-03-07T10:38:11.172Z,6956.00
2018-03-07T10:39:11.146Z,6600.00
2018-03-07T10:40:11.123Z,6788.00
2018-03-07T10:41:11.155Z,6548.00
2018-03-07T10:42:11.088Z,6800.00
2018-03-07T10:43:11.164Z,6548.00
2018-03-07T10:44:11.044Z,6224.00
2018-03-07T10:45:11.022Z,6540.00
2018-03-07T10:46:11.002Z,6064.00
2018-03-07T10:47:11.084Z,5356.00
2018-03-07T10:48:10.956Z,5168.00
2018-03-07T10:49:10.941Z,5724.00
2018-03-07T10:50:10.914Z,6376.00
2018-03-07T10:51:10.905Z,6016.00
2018-03-07T10:52:10.899Z,5848.00
2018-03-07T10:53:10.856Z,6560.00
2018-03-07T10:54:10.836Z,7592.00
2018-03-07T10:55:10.832Z,7680.00
2018-03-07T10:56:10.792Z,6676.00
2018-03-07T10:57:10.854Z,6464.00
2018-03-07T10:58:10.763Z,6592.00
2018-03-07T10:59:10.740Z,6576.00
2018-03-07T11:00:10.712Z,6436.00
2018-03-07T11:01:10.758Z,6940.00
2018-03-07T11:02:10.668Z,6280.00
2018-03-07T11:03:10.695Z,6540.00
2018-03-07T11:04:10.624Z,6860.00
2018-03-07T11:05:10.663Z,6848.00
2018-03-07T11:06:10.585Z,7552.00
2018-03-07T11:07:10.639Z,7360.00
2018-03-07T11:08:10.545Z,6520.00
2018-03-07T11:09:10.698Z,7932.00
2018-03-07T11:10:10.512Z,8316.00
2018-03-07T11:11:10.551Z,8192.00
2018-03-07T11:12:10.458Z,8424.00
2018-03-07T11:13:10.444Z,8208.00
2018-03-07T11:14:10.425Z,8368.00
2018-03-07T11:15:10.494Z,8008.00
2018-03-07T11:16:10.378Z,8248.00
2018-03-07T11:17:10.359Z,9160.00
2018-03-07T11:18:10.333Z,8396.00
2018-03-07T11:19:10.348Z,8612.00
2018-03-07T11:20:10.296Z,9560.00
2018-03-07T11:21:10.323Z,8576.00
2018-03-07T11:22:10.252Z,8788.00
2018-03-07T11:23:10.235Z,9264.00
2018-03-07T11:24:10.208Z,9332.00
2018-03-07T11:25:10.195Z,10564.00
2018-03-07T11:26:10.176Z,10552.00
2018-03-07T11:27:10.145Z,9940.00
2018-03-07T11:28:10.125Z,9896.00
2018-03-07T11:29:10.105Z,10812.00
2018-03-07T11:30:10.085Z,10528.00
2018-03-07T11:31:10.063Z,8160.00
2018-03-07T11:32:10.048Z,8204.00
2018-03-07T11:33:10.023Z,9200.00
2018-03-07T11:34:10.005Z,8916.00
2018-03-07T11:35:09.979Z,10116.00
2018-03-07T11:36:09.959Z,10456.00
2018-03-07T11:37:09.944Z,10528.00
2018-03-07T11:38:09.920Z,10996.00
2018-03-07T11:39:09.895Z,13416.00
2018-03-07T11:40:09.876Z,15040.00
2018-03-07T11:41:09.856Z,12820.00
2018-03-07T11:42:09.836Z,10256.00
2018-03-07T11:43:09.816Z,9244.00
2018-03-07T11:44:09.795Z,10580.00
2018-03-07T11:45:09.775Z,10656.00
2018-03-07T11:46:09.762Z,10788.00
2018-03-07T11:47:09.738Z,12204.00
2018-03-07T11:48:09.711Z,10216.00
2018-03-07T11:49:09.696Z,8160.00
2018-03-07T11:50:09.678Z,7512.00
2018-03-07T11:51:09.651Z,7204.00
2018-03-07T11:52:09.634Z,7956.00
2018-03-07T11:53:09.625Z,9280.00
2018-03-07T11:54:09.594Z,9176.00
2018-03-07T11:55:09.573Z,9412.00
2018-03-07T11:56:09.599Z,10072.00
2018-03-07T11:57:09.532Z,10124.00
2018-03-07T11:58:09.514Z,10580.00
2018-03-07T11:59:09.488Z,10420.00
2018-03-07T12:00:09.469Z,10472.00
2018-03-07T12:01:09.453Z,11348.00
2018-03-07T12:02:09.425Z,9728.00
2018-03-07T12:03:09.411Z,10500.00
2018-03-07T12:04:09.386Z,10092.00
2018-03-07T12:05:09.367Z,10876.00
2018-03-07T12:06:09.345Z,11452.00
2018-03-07T12:07:09.350Z,11092.00
2018-03-07T12:08:09.305Z,10316.00
2018-03-07T12:09:09.286Z,10376.00
2018-03-07T12:10:09.261Z,9496.00
2018-03-07T12:11:09.245Z,8864.00
2018-03-07T12:12:09.221Z,9988.00
2018-03-07T12:13:09.204Z,10596.00
2018-03-07T12:14:09.182Z,10264.00
2018-03-07T12:15:09.165Z,9296.00
2018-03-07T12:16:09.144Z,8704.00
2018-03-07T12:17:09.126Z,8780.00
2018-03-07T12:18:09.101Z,8524.00
2018-03-07T12:19:09.080Z,8592.00
2018-03-07T12:20:09.068Z,8320.00
2018-03-07T12:21:09.041Z,8108.00
2018-03-07T12:22:09.025Z,8200.00
2018-03-07T12:23:09.002Z,8104.00
2018-03-07T12:24:08.984Z,7604.00
2018-03-07T12:25:08.958Z,7368.00
2018-03-07T12:26:08.951Z,8640.00
2018-03-07T12:27:08.923Z,9156.00
2018-03-07T12:28:08.897Z,8460.00
2018-03-07T12:29:08.880Z,7580.00
2018-03-07T12:30:08.861Z,6240.00
2018-03-07T12:31:08.838Z,5828.00
2018-03-07T12:32:08.819Z,6296.00
2018-03-07T12:33:08.804Z,8116.00
2018-03-07T12:34:08.787Z,7180.00
2018-03-07T12:35:08.756Z,7020.00
2018-03-07T12:36:08.739Z,6808.00